createdAt,value
2022-09-05T00:00:11.793Z,101372.80
2022-09-05T00:03:03.403Z,101369.73
2022-09-05T00:06:03.058Z,101371.44
2022-09-05T00:08:51.298Z,101369.10
2022-09-05T00:11:43.967Z,101372.89
2022-09-05T00:15:17.756Z,101375.98
2022-09-05T00:18:42.452Z,101376.80
2022-09-05T00:24:30.904Z,101378.33
2022-09-05T00:24:34.703Z,101368.48
2022-09-05T00:27:20.124Z,101372.08
2022-09-05T00:31:07.504Z,101372.02
2022-09-05T00:33:27.156Z,101372.63
2022-09-05T00:36:12.535Z,101367.58
2022-09-05T00:38:41.357Z,101367.81
2022-09-05T00:41:10.163Z,101366.67
2022-09-05T00:43:44.049Z,101364.08
2022-09-05T00:46:28.973Z,101366.15
2022-09-05T00:49:21.874Z,101369.96
2022-09-05T00:51:55.921Z,101365.83
2022-09-05T00:55:00.119Z,101364.02
2022-09-05T00:58:05.465Z,101359.36
2022-09-05T01:00:35.522Z,101359.05
2022-09-05T01:03:11.411Z,101353.87
2022-09-05T01:06:15.985Z,101346.58
2022-09-05T01:08:52.149Z,101341.00
2022-09-05T01:11:36.416Z,101343.58
2022-09-05T01:14:12.929Z,101338.73
2022-09-05T01:16:46.392Z,101338.30
2022-09-05T01:19:16.024Z,101341.61
2022-09-05T01:22:23.514Z,101343.34
2022-09-05T01:25:25.485Z,101343.63
2022-09-05T01:29:13.533Z,101346.94
2022-09-05T01:31:17.468Z,101341.04
2022-09-05T01:33:50.755Z,101342.36
2022-09-05T01:36:49.890Z,101338.07
2022-09-05T01:40:14.921Z,101332.00
2022-09-05T01:42:46.231Z,101334.50
2022-09-05T01:45:40.829Z,101335.71
2022-09-05T01:48:16.344Z,101331.98
2022-09-05T01:50:57.988Z,101332.31
2022-09-05T01:53:40.492Z,101329.11
2022-09-05T01:56:22.908Z,101328.05
2022-09-05T01:59:34.918Z,101332.30
2022-09-05T02:02:13.601Z,101330.55
2022-09-05T02:05:06.611Z,101335.49
2022-09-05T02:07:52.505Z,101339.23
2022-09-05T02:10:31.742Z,101338.41
2022-09-05T02:13:15.898Z,101335.08
2022-09-05T02:16:08.178Z,101335.13
2022-09-05T02:18:54.998Z,101335.62
2022-09-05T02:21:33.693Z,101336.10
2022-09-05T02:24:24.402Z,101328.95
2022-09-05T02:26:59.344Z,101325.35
2022-09-05T02:29:51.793Z,101323.87
2022-09-05T02:32:24.277Z,101323.23
2022-09-05T02:34:54.190Z,101322.82
2022-09-05T02:41:20.295Z,101326.49
2022-09-05T02:45:02.464Z,101323.66
2022-09-05T02:45:12.504Z,101326.84
2022-09-05T02:46:53.175Z,101320.16
2022-09-05T02:50:22.167Z,101322.45
2022-09-05T02:57:24.666Z,101327.92
2022-09-05T02:57:42.482Z,101328.27
2022-09-05T02:58:19.578Z,101325.71
2022-09-05T03:00:52.748Z,101323.61
2022-09-05T03:03:26.885Z,101323.63
2022-09-05T03:06:00.925Z,101326.26
2022-09-05T03:08:53.114Z,101328.67
2022-09-05T03:11:28.974Z,101332.81
2022-09-05T03:14:35.860Z,101333.45
2022-09-05T03:17:36.876Z,101333.82
2022-09-05T03:20:22.743Z,101332.20
2022-09-05T03:23:11.987Z,101336.20
2022-09-05T03:25:57.373Z,101335.23
2022-09-05T03:28:39.682Z,101337.77
2022-09-05T03:31:07.223Z,101338.65
2022-09-05T03:33:50.691Z,101341.89
2022-09-05T03:36:39.768Z,101344.30
2022-09-05T03:39:22.355Z,101347.03
2022-09-05T03:42:31.057Z,101348.35
2022-09-05T03:45:08.007Z,101348.40
2022-09-05T03:47:50.221Z,101347.48
2022-09-05T03:56:10.542Z,101348.44
2022-09-05T03:57:10.995Z,101352.68
2022-09-05T03:57:24.063Z,101354.23
2022-09-05T04:00:06.734Z,101354.48
2022-09-05T04:08:06.780Z,101355.51
2022-09-05T04:08:25.310Z,101356.49
2022-09-05T04:08:43.553Z,101358.08
2022-09-05T04:11:16.399Z,101360.77
2022-09-05T04:13:55.001Z,101360.38
2022-09-05T04:16:22.892Z,101359.59
2022-09-05T04:19:05.093Z,101364.22
2022-09-05T04:22:06.454Z,101368.65
2022-09-05T04:24:47.037Z,101367.41
2022-09-05T04:27:29.275Z,101370.44
2022-09-05T04:30:39.613Z,101371.52
2022-09-05T04:33:18.378Z,101370.02
2022-09-05T04:35:56.671Z,101369.73
2022-09-05T04:38:37.858Z,101370.60
2022-09-05T04:41:18.586Z,101370.45
2022-09-05T04:43:57.933Z,101371.70
2022-09-05T04:46:30.708Z,101369.77
2022-09-05T04:49:06.066Z,101375.73
2022-09-05T04:52:14.307Z,101373.98
2022-09-05T04:55:09.565Z,101372.73
2022-09-05T04:57:41.891Z,101374.28
2022-09-05T05:06:00.032Z,101373.56
2022-09-05T05:06:11.230Z,101378.45
2022-09-05T05:06:15.111Z,101380.30
2022-09-05T05:08:58.539Z,101382.85
2022-09-05T05:17:59.442Z,101387.67
2022-09-05T05:17:59.665Z,101386.23
2022-09-05T05:18:13.920Z,101391.13
2022-09-05T05:20:43.025Z,101391.73
2022-09-05T05:23:15.389Z,101390.64
2022-09-05T05:25:55.454Z,101395.80
2022-09-05T05:28:27.331Z,101398.69
2022-09-05T05:31:01.461Z,101399.23
2022-09-05T05:33:32.669Z,101397.07
2022-09-05T05:36:00.512Z,101392.12
2022-09-05T05:38:38.275Z,101395.70
2022-09-05T05:41:14.072Z,101398.73
2022-09-05T05:43:46.305Z,101401.27
2022-09-05T05:46:16.162Z,101404.75
2022-09-05T05:48:44.153Z,101401.11
2022-09-05T05:51:38.340Z,101396.66
2022-09-05T05:54:24.175Z,101396.28
2022-09-05T05:57:15.173Z,101393.77
2022-09-05T05:59:56.258Z,101394.53
2022-09-05T06:03:26.954Z,101390.83
2022-09-05T06:06:25.898Z,101388.54
2022-09-05T06:14:50.873Z,101389.29
2022-09-05T06:15:07.080Z,101388.20
2022-09-05T06:15:27.195Z,101390.54
2022-09-05T06:18:16.969Z,101391.45
2022-09-05T06:22:08.619Z,101393.84
2022-09-05T06:23:43.127Z,101394.71
2022-09-05T06:26:32.501Z,101396.19
2022-09-05T06:29:05.684Z,101401.65
2022-09-05T06:31:52.669Z,101402.58
2022-09-05T06:34:32.579Z,101401.65
2022-09-05T06:37:09.978Z,101406.02
2022-09-05T06:39:47.984Z,101411.52
2022-09-05T06:42:42.543Z,101415.22
2022-09-05T06:45:28.959Z,101413.02
2022-09-05T06:48:23.843Z,101414.16
2022-09-05T06:51:44.873Z,101415.86
2022-09-05T06:54:12.868Z,101420.52
2022-09-05T06:57:10.329Z,101419.93
2022-09-05T07:00:22.497Z,101424.44
2022-09-05T07:03:22.725Z,101424.41
2022-09-05T07:05:56.512Z,101426.64
2022-09-05T07:08:36.297Z,101425.30
2022-09-05T07:11:16.003Z,101428.30
2022-09-05T07:13:55.421Z,101423.48
2022-09-05T07:16:26.690Z,101426.15
2022-09-05T07:19:27.180Z,101421.45
2022-09-05T07:22:46.594Z,101424.86
2022-09-05T07:25:10.273Z,101426.52
2022-09-05T07:28:25.965Z,101422.79
2022-09-05T07:30:29.577Z,101427.22
2022-09-05T07:32:57.141Z,101425.00
2022-09-05T07:35:29.421Z,101420.94
2022-09-05T07:38:20.641Z,101421.88
2022-09-05T07:40:56.541Z,101422.35
2022-09-05T07:43:28.760Z,101421.84
2022-09-05T07:45:56.537Z,101417.75
2022-09-05T07:48:34.192Z,101419.50
2022-09-05T07:56:54.607Z,101419.50
2022-09-05T07:56:59.248Z,101414.98
2022-09-05T07:57:20.891Z,101410.62
2022-09-05T07:59:34.562Z,101411.41
2022-09-05T08:02:01.817Z,101408.16
2022-09-05T08:04:30.436Z,101402.98
2022-09-05T08:07:47.223Z,101404.13
2022-09-05T08:10:08.064Z,101402.33
2022-09-05T08:13:00.602Z,101402.02
2022-09-05T08:15:29.640Z,101402.95
2022-09-05T08:18:21.519Z,101396.98
2022-09-05T08:20:51.342Z,101393.40
2022-09-05T08:23:51.981Z,101391.27
2022-09-05T08:26:23.538Z,101387.77
2022-09-05T08:29:21.618Z,101386.70
2022-09-05T08:31:52.772Z,101386.88
2022-09-05T08:34:45.129Z,101384.75
2022-09-05T08:37:17.859Z,101384.73
2022-09-05T08:40:09.658Z,101385.64
2022-09-05T08:44:58.234Z,101379.38
2022-09-05T08:46:44.007Z,101369.23
2022-09-05T08:49:16.332Z,101369.95
2022-09-05T08:52:32.599Z,101369.58
2022-09-05T08:55:16.197Z,101367.76
2022-09-05T08:57:46.834Z,101367.80
2022-09-05T09:00:20.552Z,101365.21
2022-09-05T09:03:25.948Z,101365.76
2022-09-05T09:06:13.522Z,101358.48
2022-09-05T09:09:05.953Z,101360.34
2022-09-05T09:11:52.165Z,101360.77
2022-09-05T09:15:10.112Z,101361.64
2022-09-05T09:17:55.693Z,101362.80
2022-09-05T09:20:47.777Z,101357.63
2022-09-05T09:23:32.144Z,101356.01
2022-09-05T09:26:18.586Z,101355.34
2022-09-05T09:28:56.489Z,101355.71
2022-09-05T09:31:50.366Z,101352.70
2022-09-05T09:34:26.422Z,101351.50
2022-09-05T09:37:05.053Z,101347.30
2022-09-05T09:39:45.458Z,101347.16
2022-09-05T09:42:47.805Z,101345.01
2022-09-05T09:45:28.802Z,101349.04
2022-09-05T09:48:16.580Z,101345.84
2022-09-05T09:50:46.458Z,101349.66
2022-09-05T09:53:50.420Z,101350.23
2022-09-05T09:56:45.730Z,101348.63
2022-09-05T09:59:31.412Z,101346.11
2022-09-05T10:03:47.099Z,101344.95
2022-09-05T10:10:33.406Z,101346.67
2022-09-05T10:10:57.331Z,101348.77
2022-09-05T10:12:01.202Z,101346.14
2022-09-05T10:14:55.532Z,101345.10
2022-09-05T10:17:40.493Z,101344.11
2022-09-05T10:20:14.994Z,101344.20
2022-09-05T10:22:52.998Z,101339.46
2022-09-05T10:25:29.268Z,101339.54
2022-09-05T10:28:05.631Z,101342.09
2022-09-05T10:32:58.086Z,101341.10
2022-09-05T10:35:14.792Z,101343.65
2022-09-05T10:36:55.296Z,101339.88
2022-09-05T10:39:25.988Z,101340.38
2022-09-05T10:42:03.602Z,101336.05
2022-09-05T10:44:44.627Z,101332.38
2022-09-05T10:47:17.825Z,101337.17
2022-09-05T10:49:47.884Z,101337.31
2022-09-05T10:52:20.371Z,101339.28
2022-09-05T10:55:14.643Z,101333.45
2022-09-05T10:58:04.467Z,101337.70
2022-09-05T11:02:17.232Z,101340.34
2022-09-05T11:03:57.260Z,101339.17
2022-09-05T11:06:46.899Z,101334.06
2022-09-05T11:09:27.494Z,101331.23
2022-09-05T11:12:22.777Z,101330.20
2022-09-05T11:14:54.229Z,101325.82
2022-09-05T11:17:42.100Z,101326.95
2022-09-05T11:20:35.458Z,101323.01
2022-09-05T11:23:15.495Z,101319.08
2022-09-05T11:25:43.262Z,101313.13
2022-09-05T11:28:16.189Z,101302.30
2022-09-05T11:30:45.529Z,101297.16
2022-09-05T11:39:50.798Z,101290.92
2022-09-05T11:39:52.868Z,101282.46
2022-09-05T11:40:28.493Z,101278.02
2022-09-05T11:43:25.117Z,101274.64
2022-09-05T11:45:58.729Z,101271.08
2022-09-05T11:48:53.505Z,101267.52
2022-09-05T11:51:48.780Z,101262.92
2022-09-05T11:54:55.873Z,101261.21
2022-09-05T11:57:34.209Z,101257.12
2022-09-05T12:00:32.185Z,101251.57
2022-09-05T12:04:00.311Z,101249.84
2022-09-05T12:07:15.489Z,101252.14
2022-09-05T12:10:47.390Z,101252.52
2022-09-05T12:13:17.452Z,101250.30
2022-09-05T12:16:07.716Z,101250.09
2022-09-05T12:18:45.699Z,101242.87
2022-09-05T12:21:33.458Z,101239.42
2022-09-05T12:25:16.160Z,101234.54
2022-09-05T12:27:35.701Z,101238.02
2022-09-05T12:30:00.586Z,101234.95
2022-09-05T12:34:44.496Z,101230.04
2022-09-05T12:36:12.192Z,101225.91
2022-09-05T12:41:32.087Z,101220.05
2022-09-05T12:42:09.902Z,101216.08
2022-09-05T12:45:09.958Z,101211.47
2022-09-05T12:48:13.578Z,101208.15
2022-09-05T12:51:05.616Z,101209.93
2022-09-05T12:53:46.891Z,101208.58
2022-09-05T12:59:27.074Z,101209.95
2022-09-05T13:03:05.122Z,101203.73
2022-09-05T13:03:05.820Z,101202.56
2022-09-05T13:05:13.058Z,101197.93
2022-09-05T13:07:42.973Z,101195.21
2022-09-05T13:13:30.564Z,101196.64
2022-09-05T13:14:59.830Z,101189.05
2022-09-05T13:15:53.434Z,101190.27
2022-09-05T13:18:31.483Z,101185.70
2022-09-05T13:21:31.446Z,101182.50
2022-09-05T13:24:22.290Z,101178.37
2022-09-05T13:27:08.966Z,101180.86
2022-09-05T13:31:18.266Z,101179.70
2022-09-05T13:38:05.339Z,101180.84
2022-09-05T13:38:17.741Z,101179.38
2022-09-05T13:39:07.322Z,101175.83
2022-09-05T13:41:49.013Z,101177.91
2022-09-05T13:44:25.257Z,101171.37
2022-09-05T13:46:58.967Z,101173.89
2022-09-05T13:49:55.730Z,101178.86
2022-09-05T13:52:26.669Z,101179.45
2022-09-05T13:55:03.461Z,101181.85
2022-09-05T13:57:39.195Z,101181.91
2022-09-05T14:00:28.135Z,101183.69
2022-09-05T14:03:37.983Z,101183.02
2022-09-05T14:06:31.204Z,101184.83
2022-09-05T14:12:37.291Z,101184.53
2022-09-05T14:15:29.586Z,101187.45
2022-09-05T14:18:25.297Z,101188.56
2022-09-05T14:21:17.517Z,101185.95
2022-09-05T14:23:56.163Z,101187.14
2022-09-05T14:26:39.187Z,101187.34
2022-09-05T14:29:16.065Z,101189.77
2022-09-05T14:37:36.883Z,101192.06
2022-09-05T14:37:51.084Z,101196.00
2022-09-05T14:38:13.637Z,101197.16
2022-09-05T14:41:11.060Z,101202.33
2022-09-05T14:43:53.559Z,101208.77
2022-09-05T14:46:49.877Z,101207.58
2022-09-05T14:49:39.543Z,101202.23
2022-09-05T14:52:23.871Z,101200.81
2022-09-05T15:02:44.134Z,101200.17
2022-09-05T15:02:56.587Z,101202.11
2022-09-05T15:06:32.909Z,101200.20
2022-09-05T15:12:15.088Z,101201.53
2022-09-05T15:12:24.408Z,101201.23
2022-09-05T15:14:39.542Z,101200.31
2022-09-05T15:17:06.621Z,101198.34
2022-09-05T15:20:05.530Z,101199.31
2022-09-05T15:22:35.672Z,101199.05
2022-09-05T15:25:12.265Z,101199.02
2022-09-05T15:27:45.388Z,101195.91
2022-09-05T15:30:35.356Z,101195.80
2022-09-05T15:33:25.789Z,101192.96
2022-09-05T15:35:53.690Z,101193.46
2022-09-05T15:38:25.165Z,101190.45
2022-09-05T15:41:08.274Z,101190.67
2022-09-05T15:43:38.458Z,101186.97
2022-09-05T15:46:05.785Z,101187.85
2022-09-05T15:48:35.061Z,101187.34
2022-09-05T15:51:10.099Z,101187.21
2022-09-05T15:53:37.865Z,101185.61
2022-09-05T15:56:11.062Z,101188.85
2022-09-05T15:58:54.194Z,101185.15
2022-09-05T16:01:58.734Z,101181.52
2022-09-05T16:06:05.335Z,101181.96
2022-09-05T16:10:27.814Z,101185.61
2022-09-05T16:10:45.711Z,101185.41
2022-09-05T16:12:54.519Z,101187.97
2022-09-05T16:17:59.070Z,101187.45
2022-09-05T16:23:17.890Z,101190.45
2022-09-05T16:23:23.942Z,101193.55
2022-09-05T16:24:05.267Z,101193.02
2022-09-05T16:26:41.235Z,101192.73
2022-09-05T16:29:26.172Z,101192.11
2022-09-05T16:31:59.978Z,101194.48
2022-09-05T16:34:30.648Z,101197.05
2022-09-05T16:37:08.315Z,101198.24
2022-09-05T16:39:38.818Z,101199.30
2022-09-05T16:42:12.278Z,101199.05
2022-09-05T16:44:46.512Z,101203.58
2022-09-05T16:47:32.596Z,101208.40
2022-09-05T16:50:26.151Z,101210.89
2022-09-05T16:53:30.705Z,101216.79
2022-09-05T16:56:03.405Z,101218.37
2022-09-05T16:58:37.853Z,101226.38
2022-09-05T17:01:31.826Z,101229.66
2022-09-05T17:04:20.666Z,101237.60
2022-09-05T17:07:09.876Z,101239.60
2022-09-05T17:09:37.036Z,101242.35
2022-09-05T17:12:09.506Z,101247.69
2022-09-05T17:14:47.411Z,101250.63
2022-09-05T17:17:44.008Z,101251.98
2022-09-05T17:20:09.577Z,101259.47
2022-09-05T17:25:20.978Z,101261.80
2022-09-05T17:29:25.751Z,101265.16
2022-09-05T17:29:26.822Z,101262.95
2022-09-05T17:31:54.100Z,101261.91
2022-09-05T17:34:35.311Z,101266.08
2022-09-05T17:37:22.950Z,101270.42
2022-09-05T17:39:56.582Z,101276.09
2022-09-05T17:42:29.813Z,101275.28
2022-09-05T17:45:22.983Z,101276.41
2022-09-05T17:47:52.201Z,101278.33
2022-09-05T17:50:38.343Z,101282.66
2022-09-05T17:53:26.513Z,101283.27
2022-09-05T17:55:55.197Z,101286.77
2022-09-05T17:58:48.867Z,101287.08
2022-09-05T18:01:21.316Z,101288.80
2022-09-05T18:03:55.803Z,101292.49
2022-09-05T18:06:44.365Z,101289.15
2022-09-05T18:09:41.538Z,101291.73
2022-09-05T18:13:11.613Z,101289.69
2022-09-05T18:15:39.967Z,101288.02
2022-09-05T18:18:31.341Z,101293.32
2022-09-05T18:21:21.842Z,101293.45
2022-09-05T18:23:54.829Z,101291.98
2022-09-05T18:26:41.191Z,101291.73
2022-09-05T18:29:58.596Z,101291.67
2022-09-05T18:32:45.326Z,101290.74
2022-09-05T18:35:38.308Z,101289.94
2022-09-05T18:38:16.857Z,101288.67
2022-09-05T18:41:00.510Z,101286.69
2022-09-05T18:43:31.051Z,101285.61
2022-09-05T18:46:08.240Z,101287.91
2022-09-05T18:49:07.145Z,101284.48
2022-09-05T18:52:17.220Z,101289.44
2022-09-05T18:56:10.651Z,101284.73
2022-09-05T18:57:39.603Z,101289.66
2022-09-05T19:00:13.866Z,101288.70
2022-09-05T19:02:51.569Z,101285.29
2022-09-05T19:05:46.116Z,101280.45
2022-09-05T19:08:28.655Z,101281.30
2022-09-05T19:11:00.125Z,101278.95
2022-09-05T19:13:32.381Z,101278.22
2022-09-05T19:16:42.077Z,101284.80
2022-09-05T19:19:08.784Z,101283.59
2022-09-05T19:21:39.090Z,101283.66
2022-09-05T19:24:10.104Z,101283.33
2022-09-05T19:26:36.982Z,101283.18
2022-09-05T19:36:45.280Z,101281.07
2022-09-05T19:36:54.137Z,101281.92
2022-09-05T19:37:24.339Z,101279.17
2022-09-05T19:37:47.631Z,101277.92
2022-09-05T19:47:31.172Z,101277.07
2022-09-05T19:47:42.804Z,101276.13
2022-09-05T19:47:44.711Z,101278.07
2022-09-05T19:49:05.767Z,101276.21
2022-09-05T19:51:32.923Z,101273.27
2022-09-05T19:54:05.479Z,101274.11
2022-09-05T19:56:38.628Z,101269.44
2022-09-05T19:59:39.357Z,101268.20
2022-09-05T20:02:20.458Z,101268.85
2022-09-05T20:04:52.816Z,101265.41
2022-09-05T20:07:24.608Z,101268.08
2022-09-05T20:09:53.182Z,101266.19
2022-09-05T20:12:30.510Z,101264.36
2022-09-05T20:14:57.966Z,101258.94
2022-09-05T20:17:29.809Z,101260.17
2022-09-05T20:20:09.463Z,101259.48
2022-09-05T20:22:49.378Z,101257.45
2022-09-05T20:25:41.867Z,101256.05
2022-09-05T20:28:12.739Z,101255.35
2022-09-05T20:30:51.260Z,101254.66
2022-09-05T20:33:39.274Z,101250.47
2022-09-05T20:43:07.990Z,101250.39
2022-09-05T20:43:17.035Z,101244.22
2022-09-05T20:43:31.793Z,101243.53
2022-09-05T20:45:03.856Z,101245.17
2022-09-05T20:54:12.840Z,101239.70
2022-09-05T20:54:21.141Z,101241.67
2022-09-05T20:54:28.653Z,101241.94
2022-09-05T20:56:31.095Z,101239.42
2022-09-05T20:59:01.046Z,101239.09
2022-09-05T21:01:29.756Z,101238.58
2022-09-05T21:04:01.604Z,101241.81
2022-09-05T21:06:41.528Z,101241.92
2022-09-05T21:09:13.297Z,101240.96
2022-09-05T21:11:40.350Z,101242.63
2022-09-05T21:14:07.508Z,101237.77
2022-09-05T21:16:45.291Z,101239.63
2022-09-05T21:19:35.239Z,101238.13
2022-09-05T21:22:45.581Z,101237.17
2022-09-05T21:25:17.450Z,101231.79
2022-09-05T21:28:07.063Z,101230.27
2022-09-05T21:30:35.760Z,101231.74
2022-09-05T21:33:11.850Z,101234.13
2022-09-05T21:35:46.729Z,101239.11
2022-09-05T21:38:16.955Z,101242.27
2022-09-05T21:41:03.373Z,101239.48
2022-09-05T21:47:30.845Z,101237.33
2022-09-05T21:47:49.809Z,101236.59
2022-09-05T21:49:09.689Z,101237.39
2022-09-05T21:51:37.466Z,101237.08
2022-09-05T21:59:14.355Z,101233.05
2022-09-05T21:59:33.301Z,101234.55
2022-09-05T21:59:46.857Z,101236.75
2022-09-05T22:02:16.958Z,101242.73
2022-09-05T22:04:44.129Z,101240.08
2022-09-05T22:07:16.407Z,101244.86
2022-09-05T22:09:52.067Z,101247.14
2022-09-05T22:12:30.056Z,101248.16
2022-09-05T22:14:58.192Z,101245.75
2022-09-05T22:17:45.690Z,101241.57
2022-09-05T22:20:16.282Z,101241.09
2022-09-05T22:22:46.867Z,101234.80
2022-09-05T22:25:34.306Z,101237.04
2022-09-05T22:28:06.522Z,101242.39
2022-09-05T22:30:35.994Z,101240.83
2022-09-05T22:33:05.605Z,101238.08
2022-09-05T22:35:36.450Z,101241.02
2022-09-05T22:38:10.949Z,101242.05
2022-09-05T22:40:40.999Z,101244.30
2022-09-05T22:43:09.429Z,101245.23
2022-09-05T22:45:37.667Z,101239.76
2022-09-05T22:48:12.546Z,101232.21
2022-09-05T22:50:40.179Z,101234.68
2022-09-05T22:53:08.773Z,101235.01
2022-09-05T22:55:41.673Z,101234.15
2022-09-05T22:58:10.066Z,101230.95
2022-09-05T23:00:37.911Z,101230.48
2022-09-05T23:03:06.428Z,101231.80
2022-09-05T23:05:33.584Z,101235.20
2022-09-05T23:08:01.431Z,101232.42
2022-09-05T23:10:29.204Z,101235.85
2022-09-05T23:12:56.070Z,101234.89
2022-09-05T23:15:23.088Z,101234.48
2022-09-05T23:17:57.337Z,101234.95
2022-09-05T23:20:25.585Z,101235.25
2022-09-05T23:22:52.948Z,101230.60
2022-09-05T23:25:21.701Z,101234.08
2022-09-05T23:27:50.677Z,101233.99
2022-09-05T23:30:18.004Z,101232.83
2022-09-05T23:32:50.507Z,101233.25
2022-09-05T23:35:18.056Z,101228.85
2022-09-05T23:37:45.616Z,101229.05
2022-09-05T23:40:20.178Z,101225.53
2022-09-05T23:43:05.631Z,101225.03
2022-09-05T23:45:32.486Z,101221.88
2022-09-05T23:47:59.538Z,101222.25
2022-09-05T23:50:27.518Z,101221.75
2022-09-05T23:52:54.979Z,101222.29
2022-09-05T23:55:23.442Z,101223.17
2022-09-05T23:57:50.409Z,101224.56
